Repubblicadelbrasile — IBZB — position and weather

sailwx.info

Track history (hours):
 
Tides and Currents Weather Stations Pressure Air Temp Water Temp Dewpoint Dewpoint Depression Visibility Wind Speed Wind Dir Waves Ship Positions

Repubblicadelbrasile

Last reported at 2017-Apr-30 11:39 UTC. Time now 2017-Apr-30 14:35 UTC.
Position N 38°41' E 008°40'.

Length 210 m; draft 9.7 m.

Type: Ship. MMSI: 247310000.

Date/timePositionNaut miles runAvg speedWind from/ knotsBaromVisibWave heightAir tempDewpointWater temp
2017-Apr-30 11:39N 38°41' E 008°40'315.5
2017-Apr-30 11:28N 38°42' E 008°44'1015.2
2017-Apr-30 10:47N 38°47' E 008°56'515.4
2017-Apr-30 10:28N 38°49' E 009°01'715.5
2017-Apr-30 10:00N 38°52' E 009°09'815.9
2017-Apr-30 09:30N 38°54' E 009°19'816.0
2017-Apr-30 09:00N 38°56' E 009°29'20416.0
2017-Apr-29 20:13N 40°14' E 013°34'241 4.6
2017-Apr-27 16:16N 43°19' E 010°08'415.1
2017-Apr-27 16:01N 43°22' E 010°09'815.0
2017-Apr-27 15:30N 43°30' E 010°11'5 9.2
2017-Apr-27 15:00N 43°32' E 010°17'2 2.1
2017-Apr-27 13:58N 43°34' E 010°18'0 0.0
2017-Apr-27 13:28N 43°34' E 010°18'0 0.0
2017-Apr-27 12:55N 43°34' E 010°18'0 0.0
2017-Apr-27 12:28N 43°34' E 010°18'0 0.0
2017-Apr-27 11:58N 43°34' E 010°18'0 0.0
2017-Apr-27 11:28N 43°34' E 010°18'0 0.0
2017-Apr-27 10:58N 43°34' E 010°18'0 0.0
2017-Apr-27 10:28N 43°34' E 010°18'0 0.0
2017-Apr-27 09:55N 43°34' E 010°18'0 0.0
2017-Apr-27 09:28N 43°34' E 010°18'0 0.0
2017-Apr-27 08:55N 43°34' E 010°18'0 0.0
2017-Apr-27 08:28N 43°34' E 010°18'0 0.0
2017-Apr-27 07:55N 43°34' E 010°18'0 0.0
2017-Apr-27 07:22N 43°34' E 010°18'0 0.0
2017-Apr-27 06:58N 43°34' E 010°18'0 0.0
2017-Apr-27 06:28N 43°34' E 010°18'0 0.0
2017-Apr-27 05:58N 43°34' E 010°18'0 0.0
2017-Apr-27 05:30N 43°34' E 010°18'1 2.7
2017-Apr-27 05:00N 43°33' E 010°17'4 8.5
2017-Apr-27 04:30N 43°30' E 010°13'3 5.2
2017-Apr-27 04:00N 43°28' E 010°11'1 1.5
2017-Apr-27 03:30N 43°28' E 010°12'1 2.1
2017-Apr-27 03:00N 43°29' E 010°11'3 5.9
2017-Apr-27 02:30N 43°30' E 010°07'4 7.4
2017-Apr-27 02:00N 43°30' E 010°02'4 8.8
2017-Apr-27 01:30N 43°31' E 009°56'713.0
2017-Apr-27 01:00N 43°35' E 009°48'713.0
2017-Apr-27 00:30N 43°39' E 009°41'713.1
2017-Apr-27 00:00N 43°43' E 009°34'713.1
2017-Apr-26 23:30N 43°47' E 009°27'713.0
2017-Apr-26 23:00N 43°51' E 009°20'612.8
2017-Apr-26 22:30N 43°56' E 009°14'713.0
2017-Apr-26 22:00N 44°01' E 009°10'713.2
2017-Apr-26 21:30N 44°08' E 009°06'713.0
2017-Apr-26 21:00N 44°13' E 009°03'612.5
2017-Apr-26 20:30N 44°19' E 008°59'510.3
2017-Apr-26 20:00N 44°24' E 008°56'2 3.6
2017-Apr-26 19:30N 44°24' E 008°53'0 0.0
2017-Apr-26 19:00N 44°24' E 008°53'0 0.0
2017-Apr-26 18:30N 44°24' E 008°53'0 0.0
2017-Apr-26 18:00N 44°24' E 008°53'0 0.0
2017-Apr-26 17:30N 44°24' E 008°53'0 0.0
2017-Apr-26 17:00N 44°24' E 008°53'0 0.0
2017-Apr-26 16:30N 44°24' E 008°53'0 0.0
2017-Apr-26 16:00N 44°24' E 008°53'0 0.0
2017-Apr-26 15:30N 44°24' E 008°53'0 0.0
2017-Apr-26 09:19N 44°24' E 008°53'0 0.0
2017-Apr-26 08:58N 44°24' E 008°53'0 0.0
2017-Apr-26 08:28N 44°24' E 008°53'0 0.0
2017-Apr-26 07:49N 44°24' E 008°53'0 0.0
2017-Apr-26 07:30N 44°24' E 008°53'0 0.0
2017-Apr-26 07:00N 44°24' E 008°53'0 0.0
2017-Apr-26 06:24N 44°24' E 008°53'0 0.0
2017-Apr-26 06:00N 44°24' E 008°53'0 0.0
2017-Apr-26 05:30N 44°24' E 008°53'0 0.0
2017-Apr-26 04:59N 44°24' E 008°53'0 0.0
2017-Apr-26 04:29N 44°24' E 008°53'0 0.0
2017-Apr-26 04:00N 44°24' E 008°53'1 1.5
2017-Apr-26 03:30N 44°24' E 008°54'3 6.4
2017-Apr-26 03:00N 44°22' E 008°58'4 7.9
2017-Apr-26 02:30N 44°19' E 009°02'2 4.5
2017-Apr-26 02:00N 44°22' E 009°02'0 0.1
2017-Apr-26 01:22N 44°22' E 009°02'0 0.1
2017-Apr-26 01:00N 44°22' E 009°02'0 0.1
2017-Apr-26 00:30N 44°22' E 009°02'0 0.2
2017-Apr-26 00:00N 44°22' E 009°02'0 0.1
2017-Apr-25 23:30N 44°22' E 009°02'0 0.0
2017-Apr-25 23:00N 44°22' E 009°02'0 0.1
2017-Apr-25 22:30N 44°22' E 009°02'0 0.0
2017-Apr-25 22:00N 44°22' E 009°02'0 0.1
2017-Apr-25 21:31N 44°22' E 009°02'0 0.0
2017-Apr-25 21:00N 44°22' E 009°02'0 0.1
2017-Apr-25 20:30N 44°22' E 009°02'0 0.0
2017-Apr-25 20:00N 44°22' E 009°02'0 0.0
2017-Apr-25 19:30N 44°22' E 009°02'0 0.1
2017-Apr-25 19:00N 44°22' E 009°02'0 0.1
2017-Apr-25 18:30N 44°22' E 009°02'0 0.1
2017-Apr-25 18:00N 44°22' E 009°02'0 0.1
2017-Apr-25 17:30N 44°22' E 009°02'0 0.1
2017-Apr-25 17:00N 44°22' E 009°02'0 0.1
2017-Apr-25 16:30N 44°22' E 009°02'0 0.1
2017-Apr-25 16:00N 44°22' E 009°02'0 0.1
2017-Apr-25 15:30N 44°22' E 009°02'0 0.1
2017-Apr-25 15:00N 44°22' E 009°02'0 0.0
2017-Apr-25 14:00N 44°22' E 009°02'0 0.1
2017-Apr-25 13:30N 44°22' E 009°02'0 0.1
2017-Apr-25 13:00N 44°22' E 009°02'0 0.1
2017-Apr-25 12:30N 44°22' E 009°02'0 0.1
2017-Apr-25 12:00N 44°22' E 009°02'0 0.1
2017-Apr-25 11:30N 44°22' E 009°02'0 0.1
2017-Apr-25 11:00N 44°22' E 009°02'0 0.1
2017-Apr-25 10:30N 44°22' E 009°02'2 4.0
2017-Apr-25 10:00N 44°20' E 009°00'612.8
2017-Apr-25 09:30N 44°16' E 008°53'816.7
2017-Apr-25 09:00N 44°11' E 008°44'816.7
2017-Apr-25 08:30N 44°06' E 008°35'816.1
2017-Apr-25 08:00N 44°00' E 008°27'1215.8
2017-Apr-25 07:14N 43°52' E 008°14'2416.0
2017-Apr-25 05:44N 43°37' E 007°48'516.1
2017-Apr-25 05:26N 43°34' E 007°43'715.9
2017-Apr-25 05:00N 43°30' E 007°36'1115.8
2017-Apr-25 04:19N 43°23' E 007°25'615.8
2017-Apr-25 03:55N 43°19' E 007°18'615.6
2017-Apr-25 03:30N 43°15' E 007°11'8313.8
2017-Apr-24 21:30N 43°07' E 005°18'814.5
2017-Apr-24 20:58N 43°12' E 005°09'1014.2
2017-Apr-24 20:17N 43°20' E 005°16'3 0.1
2017-Apr-23 06:37N 43°21' E 005°20'1 4.0
2017-Apr-23 06:29N 43°21' E 005°19'4 7.5
2017-Apr-23 06:00N 43°19' E 005°15'3 5.9
2017-Apr-23 05:30N 43°17' E 005°12'3 6.2
2017-Apr-23 04:57N 43°14' E 005°10'4 7.4
2017-Apr-23 04:28N 43°10' E 005°10'11 4.6
2017-Apr-23 02:06N 43°04' E 004°58'15 7.5
2017-Apr-23 00:06N 43°10' E 004°39'6 7.9
2017-Apr-22 23:20N 43°12' E 004°31'4 7.9
2017-Apr-22 22:48N 43°13' E 004°25'5 7.8
2017-Apr-22 22:06N 43°14' E 004°18'16 8.2
2017-Apr-22 20:07N 43°17' E 003°56'  
Track history (hours):
 
Tides and Currents Weather Stations Pressure Air Temp Water Temp Dewpoint Dewpoint Depression Visibility Wind Speed Wind Dir Waves Ship Positions

Repubblicadelbrasile

Last reported at 2017-Apr-30 11:39 UTC. Time now 2017-Apr-30 14:35 UTC.
Position N 38°41' E 008°40'.

Length 210 m; draft 9.7 m.

Type: Ship. MMSI: 247310000.

Date/timePositionNaut miles runAvg speedWind from/ knotsBaromVisibWave heightAir tempDewpointWater temp
2017-Apr-30 11:39N 38°41' E 008°40'315.5
2017-Apr-30 11:28N 38°42' E 008°44'1015.2
2017-Apr-30 10:47N 38°47' E 008°56'515.4
2017-Apr-30 10:28N 38°49' E 009°01'715.5
2017-Apr-30 10:00N 38°52' E 009°09'815.9
2017-Apr-30 09:30N 38°54' E 009°19'816.0
2017-Apr-30 09:00N 38°56' E 009°29'20416.0
2017-Apr-29 20:13N 40°14' E 013°34'241 4.6
2017-Apr-27 16:16N 43°19' E 010°08'415.1
2017-Apr-27 16:01N 43°22' E 010°09'815.0
2017-Apr-27 15:30N 43°30' E 010°11'5 9.2
2017-Apr-27 15:00N 43°32' E 010°17'2 2.1
2017-Apr-27 13:58N 43°34' E 010°18'0 0.0
2017-Apr-27 13:28N 43°34' E 010°18'0 0.0
2017-Apr-27 12:55N 43°34' E 010°18'0 0.0
2017-Apr-27 12:28N 43°34' E 010°18'0 0.0
2017-Apr-27 11:58N 43°34' E 010°18'0 0.0
2017-Apr-27 11:28N 43°34' E 010°18'0 0.0
2017-Apr-27 10:58N 43°34' E 010°18'0 0.0
2017-Apr-27 10:28N 43°34' E 010°18'0 0.0
2017-Apr-27 09:55N 43°34' E 010°18'0 0.0
2017-Apr-27 09:28N 43°34' E 010°18'0 0.0
2017-Apr-27 08:55N 43°34' E 010°18'0 0.0
2017-Apr-27 08:28N 43°34' E 010°18'0 0.0
2017-Apr-27 07:55N 43°34' E 010°18'0 0.0
2017-Apr-27 07:22N 43°34' E 010°18'0 0.0
2017-Apr-27 06:58N 43°34' E 010°18'0 0.0
2017-Apr-27 06:28N 43°34' E 010°18'0 0.0
2017-Apr-27 05:58N 43°34' E 010°18'0 0.0
2017-Apr-27 05:30N 43°34' E 010°18'1 2.7
2017-Apr-27 05:00N 43°33' E 010°17'4 8.5
2017-Apr-27 04:30N 43°30' E 010°13'3 5.2
2017-Apr-27 04:00N 43°28' E 010°11'1 1.5
2017-Apr-27 03:30N 43°28' E 010°12'1 2.1
2017-Apr-27 03:00N 43°29' E 010°11'3 5.9
2017-Apr-27 02:30N 43°30' E 010°07'4 7.4
2017-Apr-27 02:00N 43°30' E 010°02'4 8.8
2017-Apr-27 01:30N 43°31' E 009°56'713.0
2017-Apr-27 01:00N 43°35' E 009°48'713.0
2017-Apr-27 00:30N 43°39' E 009°41'713.1
2017-Apr-27 00:00N 43°43' E 009°34'713.1
2017-Apr-26 23:30N 43°47' E 009°27'713.0
2017-Apr-26 23:00N 43°51' E 009°20'612.8
2017-Apr-26 22:30N 43°56' E 009°14'713.0
2017-Apr-26 22:00N 44°01' E 009°10'713.2
2017-Apr-26 21:30N 44°08' E 009°06'713.0
2017-Apr-26 21:00N 44°13' E 009°03'612.5
2017-Apr-26 20:30N 44°19' E 008°59'510.3
2017-Apr-26 20:00N 44°24' E 008°56'2 3.6
2017-Apr-26 19:30N 44°24' E 008°53'0 0.0
2017-Apr-26 19:00N 44°24' E 008°53'0 0.0
2017-Apr-26 18:30N 44°24' E 008°53'0 0.0
2017-Apr-26 18:00N 44°24' E 008°53'0 0.0
2017-Apr-26 17:30N 44°24' E 008°53'0 0.0
2017-Apr-26 17:00N 44°24' E 008°53'0 0.0
2017-Apr-26 16:30N 44°24' E 008°53'0 0.0
2017-Apr-26 16:00N 44°24' E 008°53'0 0.0
2017-Apr-26 15:30N 44°24' E 008°53'0 0.0
2017-Apr-26 09:19N 44°24' E 008°53'0 0.0
2017-Apr-26 08:58N 44°24' E 008°53'0 0.0
2017-Apr-26 08:28N 44°24' E 008°53'0 0.0
2017-Apr-26 07:49N 44°24' E 008°53'0 0.0
2017-Apr-26 07:30N 44°24' E 008°53'0 0.0
2017-Apr-26 07:00N 44°24' E 008°53'0 0.0
2017-Apr-26 06:24N 44°24' E 008°53'0 0.0
2017-Apr-26 06:00N 44°24' E 008°53'0 0.0
2017-Apr-26 05:30N 44°24' E 008°53'0 0.0
2017-Apr-26 04:59N 44°24' E 008°53'0 0.0
2017-Apr-26 04:29N 44°24' E 008°53'0 0.0
2017-Apr-26 04:00N 44°24' E 008°53'1 1.5
2017-Apr-26 03:30N 44°24' E 008°54'3 6.4
2017-Apr-26 03:00N 44°22' E 008°58'4 7.9
2017-Apr-26 02:30N 44°19' E 009°02'2 4.5
2017-Apr-26 02:00N 44°22' E 009°02'0 0.1
2017-Apr-26 01:22N 44°22' E 009°02'0 0.1
2017-Apr-26 01:00N 44°22' E 009°02'0 0.1
2017-Apr-26 00:30N 44°22' E 009°02'0 0.2
2017-Apr-26 00:00N 44°22' E 009°02'0 0.1
2017-Apr-25 23:30N 44°22' E 009°02'0 0.0
2017-Apr-25 23:00N 44°22' E 009°02'0 0.1
2017-Apr-25 22:30N 44°22' E 009°02'0 0.0
2017-Apr-25 22:00N 44°22' E 009°02'0 0.1
2017-Apr-25 21:31N 44°22' E 009°02'0 0.0
2017-Apr-25 21:00N 44°22' E 009°02'0 0.1
2017-Apr-25 20:30N 44°22' E 009°02'0 0.0
2017-Apr-25 20:00N 44°22' E 009°02'0 0.0
2017-Apr-25 19:30N 44°22' E 009°02'0 0.1
2017-Apr-25 19:00N 44°22' E 009°02'0 0.1
2017-Apr-25 18:30N 44°22' E 009°02'0 0.1
2017-Apr-25 18:00N 44°22' E 009°02'0 0.1
2017-Apr-25 17:30N 44°22' E 009°02'0 0.1
2017-Apr-25 17:00N 44°22' E 009°02'0 0.1
2017-Apr-25 16:30N 44°22' E 009°02'0 0.1
2017-Apr-25 16:00N 44°22' E 009°02'0 0.1
2017-Apr-25 15:30N 44°22' E 009°02'0 0.1
2017-Apr-25 15:00N 44°22' E 009°02'0 0.0
2017-Apr-25 14:00N 44°22' E 009°02'0 0.1
2017-Apr-25 13:30N 44°22' E 009°02'0 0.1
2017-Apr-25 13:00N 44°22' E 009°02'0 0.1
2017-Apr-25 12:30N 44°22' E 009°02'0 0.1
2017-Apr-25 12:00N 44°22' E 009°02'0 0.1
2017-Apr-25 11:30N 44°22' E 009°02'0 0.1
2017-Apr-25 11:00N 44°22' E 009°02'0 0.1
2017-Apr-25 10:30N 44°22' E 009°02'2 4.0
2017-Apr-25 10:00N 44°20' E 009°00'612.8
2017-Apr-25 09:30N 44°16' E 008°53'816.7
2017-Apr-25 09:00N 44°11' E 008°44'816.7
2017-Apr-25 08:30N 44°06' E 008°35'816.1
2017-Apr-25 08:00N 44°00' E 008°27'1215.8
2017-Apr-25 07:14N 43°52' E 008°14'2416.0
2017-Apr-25 05:44N 43°37' E 007°48'516.1
2017-Apr-25 05:26N 43°34' E 007°43'715.9
2017-Apr-25 05:00N 43°30' E 007°36'1115.8
2017-Apr-25 04:19N 43°23' E 007°25'615.8
2017-Apr-25 03:55N 43°19' E 007°18'615.6
2017-Apr-25 03:30N 43°15' E 007°11'8313.8
2017-Apr-24 21:30N 43°07' E 005°18'814.5
2017-Apr-24 20:58N 43°12' E 005°09'1014.2
2017-Apr-24 20:17N 43°20' E 005°16'3 0.1
2017-Apr-23 06:37N 43°21' E 005°20'1 4.0
2017-Apr-23 06:29N 43°21' E 005°19'4 7.5
2017-Apr-23 06:00N 43°19' E 005°15'3 5.9
2017-Apr-23 05:30N 43°17' E 005°12'3 6.2
2017-Apr-23 04:57N 43°14' E 005°10'4 7.4
2017-Apr-23 04:28N 43°10' E 005°10'11 4.6
2017-Apr-23 02:06N 43°04' E 004°58'15 7.5
2017-Apr-23 00:06N 43°10' E 004°39'6 7.9
2017-Apr-22 23:20N 43°12' E 004°31'4 7.9
2017-Apr-22 22:48N 43°13' E 004°25'5 7.8
2017-Apr-22 22:06N 43°14' E 004°18'16 8.2
2017-Apr-22 20:07N 43°17' E 003°56'  

Dump ship's entire track history